sensor_id;sensor_type;location;lat;lon;timestamp;pressure;altitude;pressure_sealevel;temperature;humidity
12536;BME280;6334;48.696;2.114;2023-02-20T00:02:26;101318.49;;;8.18;67.54
12536;BME280;6334;48.696;2.114;2023-02-20T00:04:55;101318.98;;;7.95;68.14
12536;BME280;6334;48.696;2.114;2023-02-20T00:07:25;101309.01;;;8.02;67.88
12536;BME280;6334;48.696;2.114;2023-02-20T00:09:56;101307.45;;;8.12;67.39
12536;BME280;6334;48.696;2.114;2023-02-20T00:12:26;101314.45;;;7.97;68.19
12536;BME280;6334;48.696;2.114;2023-02-20T00:14:56;101312.72;;;8.10;68.19
12536;BME280;6334;48.696;2.114;2023-02-20T00:17:27;101317.27;;;8.10;68.22
12536;BME280;6334;48.696;2.114;2023-02-20T00:19:57;101313.37;;;8.14;67.62
12536;BME280;6334;48.696;2.114;2023-02-20T00:22:26;101311.66;;;8.07;67.73
12536;BME280;6334;48.696;2.114;2023-02-20T00:24:56;101312.31;;;8.20;67.51
12536;BME280;6334;48.696;2.114;2023-02-20T00:27:26;101308.70;;;8.08;67.91
12536;BME280;6334;48.696;2.114;2023-02-20T00:29:56;101304.82;;;8.04;68.07
12536;BME280;6334;48.696;2.114;2023-02-20T00:32:27;101302.17;;;8.14;67.93
12536;BME280;6334;48.696;2.114;2023-02-20T00:34:57;101299.97;;;8.15;68.17
12536;BME280;6334;48.696;2.114;2023-02-20T00:37:27;101293.48;;;8.00;68.87
12536;BME280;6334;48.696;2.114;2023-02-20T00:39:56;101294.80;;;7.54;71.24
12536;BME280;6334;48.696;2.114;2023-02-20T00:42:28;101293.58;;;7.58;71.04
12536;BME280;6334;48.696;2.114;2023-02-20T00:44:59;101292.95;;;7.28;73.23
12536;BME280;6334;48.696;2.114;2023-02-20T00:47:29;101286.80;;;7.24;72.28
12536;BME280;6334;48.696;2.114;2023-02-20T00:49:59;101276.75;;;7.42;71.62
12536;BME280;6334;48.696;2.114;2023-02-20T00:52:28;101281.56;;;7.84;70.13
12536;BME280;6334;48.696;2.114;2023-02-20T00:54:58;101280.84;;;8.12;69.18
12536;BME280;6334;48.696;2.114;2023-02-20T00:57:30;101288.15;;;8.17;68.93
12536;BME280;6334;48.696;2.114;2023-02-20T01:00:04;101282.33;;;8.21;68.95
12536;BME280;6334;48.696;2.114;2023-02-20T01:02:33;101283.12;;;8.10;69.75
12536;BME280;6334;48.696;2.114;2023-02-20T01:05:03;101275.08;;;8.00;69.67
12536;BME280;6334;48.696;2.114;2023-02-20T01:07:34;101279.41;;;8.06;69.55
12536;BME280;6334;48.696;2.114;2023-02-20T01:10:04;101275.11;;;7.63;71.60
12536;BME280;6334;48.696;2.114;2023-02-20T01:12:33;101274.70;;;7.58;71.52
12536;BME280;6334;48.696;2.114;2023-02-20T01:15:04;101274.78;;;7.94;69.97
12536;BME280;6334;48.696;2.114;2023-02-20T01:17:33;101271.67;;;7.91;69.51
12536;BME280;6334;48.696;2.114;2023-02-20T01:20:04;101267.70;;;7.92;69.49
12536;BME280;6334;48.696;2.114;2023-02-20T01:22:34;101276.74;;;8.10;68.80
12536;BME280;6334;48.696;2.114;2023-02-20T01:25:03;101270.52;;;8.00;69.36
12536;BME280;6334;48.696;2.114;2023-02-20T01:27:33;101267.67;;;7.99;69.37
12536;BME280;6334;48.696;2.114;2023-02-20T01:30:03;101256.96;;;7.80;69.85
12536;BME280;6334;48.696;2.114;2023-02-20T01:32:33;101266.24;;;7.80;70.35
12536;BME280;6334;48.696;2.114;2023-02-20T01:35:04;101250.80;;;7.86;70.01
12536;BME280;6334;48.696;2.114;2023-02-20T01:37:34;101263.02;;;7.79;70.15
12536;BME280;6334;48.696;2.114;2023-02-20T01:40:05;101257.81;;;7.56;71.08
12536;BME280;6334;48.696;2.114;2023-02-20T01:42:35;101270.63;;;7.97;70.08
12536;BME280;6334;48.696;2.114;2023-02-20T01:45:18;101274.74;;;7.92;70.21
12536;BME280;6334;48.696;2.114;2023-02-20T01:47:45;101277.05;;;7.94;70.40
12536;BME280;6334;48.696;2.114;2023-02-20T01:50:16;101259.77;;;7.54;71.28
12536;BME280;6334;48.696;2.114;2023-02-20T01:52:47;101271.09;;;7.64;71.01
12536;BME280;6334;48.696;2.114;2023-02-20T01:55:22;101273.42;;;7.06;73.18
12536;BME280;6334;48.696;2.114;2023-02-20T01:57:51;101268.75;;;7.12;72.91
12536;BME280;6334;48.696;2.114;2023-02-20T02:00:22;101270.90;;;7.08;72.80
12536;BME280;6334;48.696;2.114;2023-02-20T02:03:01;101266.63;;;7.58;71.20
12536;BME280;6334;48.696;2.114;2023-02-20T02:05:30;101263.75;;;7.50;71.19
12536;BME280;6334;48.696;2.114;2023-02-20T02:08:06;101259.20;;;7.47;71.82
12536;BME280;6334;48.696;2.114;2023-02-20T02:10:44;101269.59;;;7.69;71.61
12536;BME280;6334;48.696;2.114;2023-02-20T02:13:16;101267.49;;;7.59;70.99
12536;BME280;6334;48.696;2.114;2023-02-20T02:16:00;101265.30;;;7.57;71.59
12536;BME280;6334;48.696;2.114;2023-02-20T02:18:38;101265.75;;;7.62;71.10
12536;BME280;6334;48.696;2.114;2023-02-20T02:21:08;101260.31;;;7.81;70.16
12536;BME280;6334;48.696;2.114;2023-02-20T02:29:22;101252.55;;;7.75;69.81
12536;BME280;6334;48.696;2.114;2023-02-20T02:43:26;101229.53;;;7.70;69.51
12536;BME280;6334;48.696;2.114;2023-02-20T02:45:53;101228.97;;;7.26;70.15
12536;BME280;6334;48.696;2.114;2023-02-20T02:48:44;101223.34;;;7.49;69.46
12536;BME280;6334;48.696;2.114;2023-02-20T02:51:18;101226.45;;;7.48;69.83
12536;BME280;6334;48.696;2.114;2023-02-20T02:54:06;101206.98;;;6.66;71.63
12536;BME280;6334;48.696;2.114;2023-02-20T02:56:36;101227.91;;;6.65;71.95
12536;BME280;6334;48.696;2.114;2023-02-20T02:59:05;101224.80;;;6.63;72.53
12536;BME280;6334;48.696;2.114;2023-02-20T03:01:38;101223.88;;;6.35;72.96
12536;BME280;6334;48.696;2.114;2023-02-20T03:04:10;101221.42;;;6.68;73.20
12536;BME280;6334;48.696;2.114;2023-02-20T03:06:41;101209.19;;;6.86;72.94
12536;BME280;6334;48.696;2.114;2023-02-20T03:09:16;101214.19;;;6.73;74.08
12536;BME280;6334;48.696;2.114;2023-02-20T03:11:48;101207.12;;;6.94;73.32
12536;BME280;6334;48.696;2.114;2023-02-20T03:14:20;101205.37;;;7.04;73.33
12536;BME280;6334;48.696;2.114;2023-02-20T03:19:45;101206.13;;;7.29;72.15
12536;BME280;6334;48.696;2.114;2023-02-20T03:22:32;101204.13;;;7.28;71.73
12536;BME280;6334;48.696;2.114;2023-02-20T03:24:58;101197.89;;;7.44;71.64
12536;BME280;6334;48.696;2.114;2023-02-20T03:27:45;101198.00;;;7.33;71.50
12536;BME280;6334;48.696;2.114;2023-02-20T03:30:23;101198.05;;;7.31;71.63
12536;BME280;6334;48.696;2.114;2023-02-20T03:32:43;101196.75;;;7.16;72.25
12536;BME280;6334;48.696;2.114;2023-02-20T03:35:32;101195.66;;;7.26;71.53
12536;BME280;6334;48.696;2.114;2023-02-20T03:38:19;101193.03;;;7.17;71.09
12536;BME280;6334;48.696;2.114;2023-02-20T03:41:07;101189.98;;;7.25;71.12
12536;BME280;6334;48.696;2.114;2023-02-20T03:43:56;101182.56;;;7.19;70.44
12536;BME280;6334;48.696;2.114;2023-02-20T03:46:30;101179.00;;;7.18;70.03
12536;BME280;6334;48.696;2.114;2023-02-20T03:49:03;101177.97;;;7.17;69.92
12536;BME280;6334;48.696;2.114;2023-02-20T03:51:34;101172.66;;;6.92;70.87
12536;BME280;6334;48.696;2.114;2023-02-20T03:54:22;101162.57;;;6.87;71.94
12536;BME280;6334;48.696;2.114;2023-02-20T03:57:03;101158.81;;;7.14;70.69
12536;BME280;6334;48.696;2.114;2023-02-20T03:59:58;101152.94;;;6.74;71.42
12536;BME280;6334;48.696;2.114;2023-02-20T04:02:11;101158.86;;;6.66;71.11
12536;BME280;6334;48.696;2.114;2023-02-20T04:04:51;101162.08;;;6.92;70.00
12536;BME280;6334;48.696;2.114;2023-02-20T04:07:32;101157.33;;;6.87;69.98
12536;BME280;6334;48.696;2.114;2023-02-20T04:10:01;101152.03;;;6.82;70.09
12536;BME280;6334;48.696;2.114;2023-02-20T04:12:31;101148.05;;;6.89;69.66
12536;BME280;6334;48.696;2.114;2023-02-20T04:15:00;101144.30;;;7.08;69.44
12536;BME280;6334;48.696;2.114;2023-02-20T04:17:33;101137.04;;;7.19;69.30
12536;BME280;6334;48.696;2.114;2023-02-20T04:20:00;101133.94;;;6.96;69.91
12536;BME280;6334;48.696;2.114;2023-02-20T04:22:39;101126.00;;;7.13;68.90
12536;BME280;6334;48.696;2.114;2023-02-20T04:25:06;101129.27;;;7.14;68.82
12536;BME280;6334;48.696;2.114;2023-02-20T04:27:31;101137.88;;;6.90;69.15
12536;BME280;6334;48.696;2.114;2023-02-20T04:30:01;101134.30;;;6.81;69.21
12536;BME280;6334;48.696;2.114;2023-02-20T04:32:30;101138.37;;;6.86;69.24
12536;BME280;6334;48.696;2.114;2023-02-20T04:35:00;101120.47;;;6.84;69.64
12536;BME280;6334;48.696;2.114;2023-02-20T04:37:30;101128.64;;;6.96;69.38
12536;BME280;6334;48.696;2.114;2023-02-20T04:40:02;101136.73;;;6.83;69.22
12536;BME280;6334;48.696;2.114;2023-02-20T04:42:32;101143.45;;;6.91;69.49
12536;BME280;6334;48.696;2.114;2023-02-20T04:45:02;101142.73;;;6.77;69.73
12536;BME280;6334;48.696;2.114;2023-02-20T04:47:34;101132.88;;;6.76;69.42
12536;BME280;6334;48.696;2.114;2023-02-20T04:50:04;101144.09;;;6.75;69.43
12536;BME280;6334;48.696;2.114;2023-02-20T04:52:35;101140.12;;;6.82;69.06
12536;BME280;6334;48.696;2.114;2023-02-20T04:55:05;101144.27;;;6.98;68.55
12536;BME280;6334;48.696;2.114;2023-02-20T04:57:36;101144.23;;;6.66;69.11
12536;BME280;6334;48.696;2.114;2023-02-20T05:00:06;101150.25;;;6.39;70.78
12536;BME280;6334;48.696;2.114;2023-02-20T05:02:39;101144.43;;;6.63;69.32
12536;BME280;6334;48.696;2.114;2023-02-20T05:07:54;101138.35;;;6.69;68.81
12536;BME280;6334;48.696;2.114;2023-02-20T05:10:19;101150.34;;;5.79;73.32
12536;BME280;6334;48.696;2.114;2023-02-20T05:12:48;101132.20;;;5.87;72.06
12536;BME280;6334;48.696;2.114;2023-02-20T05:15:19;101137.33;;;5.94;72.73
12536;BME280;6334;48.696;2.114;2023-02-20T05:17:49;101139.97;;;6.16;70.73
12536;BME280;6334;48.696;2.114;2023-02-20T05:20:20;101139.73;;;6.00;71.67
12536;BME280;6334;48.696;2.114;2023-02-20T05:22:53;101136.53;;;6.07;71.96
12536;BME280;6334;48.696;2.114;2023-02-20T05:25:24;101138.83;;;5.81;73.15
12536;BME280;6334;48.696;2.114;2023-02-20T05:27:54;101138.70;;;6.01;71.37
12536;BME280;6334;48.696;2.114;2023-02-20T05:30:26;101136.33;;;6.49;69.53
12536;BME280;6334;48.696;2.114;2023-02-20T05:33:00;101144.21;;;6.31;69.73
12536;BME280;6334;48.696;2.114;2023-02-20T05:35:30;101145.52;;;6.27;69.91
12536;BME280;6334;48.696;2.114;2023-02-20T05:37:59;101144.42;;;5.74;72.56
12536;BME280;6334;48.696;2.114;2023-02-20T05:40:29;101136.62;;;5.97;72.38
12536;BME280;6334;48.696;2.114;2023-02-20T05:42:59;101134.08;;;6.19;70.98
12536;BME280;6334;48.696;2.114;2023-02-20T05:45:31;101134.46;;;6.35;70.17
12536;BME280;6334;48.696;2.114;2023-02-20T05:48:01;101135.20;;;6.31;70.14
12536;BME280;6334;48.696;2.114;2023-02-20T05:50:31;101132.41;;;6.15;70.58
12536;BME280;6334;48.696;2.114;2023-02-20T05:53:01;101124.83;;;6.26;69.88
12536;BME280;6334;48.696;2.114;2023-02-20T05:55:31;101130.16;;;6.25;70.00
12536;BME280;6334;48.696;2.114;2023-02-20T05:58:03;101126.70;;;5.85;71.68
12536;BME280;6334;48.696;2.114;2023-02-20T06:00:32;101123.09;;;5.80;71.43
12536;BME280;6334;48.696;2.114;2023-02-20T06:03:06;101119.68;;;5.88;71.53
12536;BME280;6334;48.696;2.114;2023-02-20T06:05:39;101118.94;;;6.11;70.87
12536;BME280;6334;48.696;2.114;2023-02-20T06:08:10;101112.39;;;6.32;70.50
12536;BME280;6334;48.696;2.114;2023-02-20T06:10:40;101116.34;;;5.90;71.82
12536;BME280;6334;48.696;2.114;2023-02-20T06:13:11;101112.87;;;6.12;71.02
12536;BME280;6334;48.696;2.114;2023-02-20T06:15:41;101119.29;;;5.79;72.59
12536;BME280;6334;48.696;2.114;2023-02-20T06:18:10;101123.12;;;6.24;70.70
12536;BME280;6334;48.696;2.114;2023-02-20T06:20:43;101011.02;;;5.43;71.14
12536;BME280;6334;48.696;2.114;2023-02-20T06:23:13;101129.72;;;5.50;73.57
12536;BME280;6334;48.696;2.114;2023-02-20T06:25:44;101128.00;;;5.54;74.09
12536;BME280;6334;48.696;2.114;2023-02-20T06:28:14;101128.63;;;5.22;74.90
12536;BME280;6334;48.696;2.114;2023-02-20T06:30:44;101130.42;;;5.52;74.57
12536;BME280;6334;48.696;2.114;2023-02-20T06:33:14;101127.96;;;5.37;74.91
12536;BME280;6334;48.696;2.114;2023-02-20T06:35:44;101125.92;;;5.42;74.30
12536;BME280;6334;48.696;2.114;2023-02-20T06:38:15;101124.55;;;5.29;74.76
12536;BME280;6334;48.696;2.114;2023-02-20T06:40:45;101122.53;;;5.61;73.97
12536;BME280;6334;48.696;2.114;2023-02-20T06:43:15;101118.26;;;5.44;74.60
12536;BME280;6334;48.696;2.114;2023-02-20T06:45:44;101114.86;;;5.96;72.93
12536;BME280;6334;48.696;2.114;2023-02-20T06:48:14;101126.72;;;5.65;73.28
12536;BME280;6334;48.696;2.114;2023-02-20T06:50:45;101120.03;;;5.78;73.79
12536;BME280;6334;48.696;2.114;2023-02-20T06:53:17;101120.64;;;5.77;73.76
12536;BME280;6334;48.696;2.114;2023-02-20T06:55:47;101123.52;;;5.28;75.08
12536;BME280;6334;48.696;2.114;2023-02-20T06:58:17;101120.95;;;5.57;74.55
12536;BME280;6334;48.696;2.114;2023-02-20T07:00:47;101124.30;;;5.49;74.59
12536;BME280;6334;48.696;2.114;2023-02-20T07:03:19;101127.50;;;5.64;74.22
12536;BME280;6334;48.696;2.114;2023-02-20T07:05:49;101127.27;;;5.58;74.89
12536;BME280;6334;48.696;2.114;2023-02-20T07:08:19;101125.63;;;6.04;72.70
12536;BME280;6334;48.696;2.114;2023-02-20T07:10:49;101131.47;;;5.67;73.59
12536;BME280;6334;48.696;2.114;2023-02-20T07:13:18;101135.60;;;5.46;74.45
12536;BME280;6334;48.696;2.114;2023-02-20T07:15:48;101134.25;;;5.57;73.87
12536;BME280;6334;48.696;2.114;2023-02-20T07:18:18;101142.08;;;5.97;72.65
12536;BME280;6334;48.696;2.114;2023-02-20T07:20:50;101140.83;;;5.75;74.33
12536;BME280;6334;48.696;2.114;2023-02-20T07:23:20;101149.21;;;5.54;74.72
12536;BME280;6334;48.696;2.114;2023-02-20T07:25:50;101151.53;;;5.46;75.21
12536;BME280;6334;48.696;2.114;2023-02-20T07:28:21;101155.14;;;5.60;75.15
12536;BME280;6334;48.696;2.114;2023-02-20T07:30:51;101156.41;;;5.68;74.67
12536;BME280;6334;48.696;2.114;2023-02-20T07:33:20;101154.59;;;5.59;76.53
12536;BME280;6334;48.696;2.114;2023-02-20T07:35:58;101153.23;;;6.21;73.86
12536;BME280;6334;48.696;2.114;2023-02-20T07:38:27;101161.98;;;6.95;72.46
12536;BME280;6334;48.696;2.114;2023-02-20T07:43:33;101162.08;;;6.18;73.74
12536;BME280;6334;48.696;2.114;2023-02-20T07:46:03;101164.38;;;6.08;73.98
12536;BME280;6334;48.696;2.114;2023-02-20T07:48:33;101166.06;;;6.29;73.60
12536;BME280;6334;48.696;2.114;2023-02-20T07:51:03;101152.73;;;6.54;72.73
12536;BME280;6334;48.696;2.114;2023-02-20T07:53:33;101150.34;;;6.68;72.40
12536;BME280;6334;48.696;2.114;2023-02-20T07:56:10;101160.02;;;6.80;70.51
12536;BME280;6334;48.696;2.114;2023-02-20T07:58:39;101159.55;;;6.86;71.36
12536;BME280;6334;48.696;2.114;2023-02-20T08:01:12;101160.13;;;6.90;71.84
12536;BME280;6334;48.696;2.114;2023-02-20T08:03:44;101157.12;;;6.81;72.41
12536;BME280;6334;48.696;2.114;2023-02-20T08:06:17;101159.85;;;6.58;69.38
12536;BME280;6334;48.696;2.114;2023-02-20T08:08:47;101154.93;;;6.79;70.39
12536;BME280;6334;48.696;2.114;2023-02-20T08:13:51;101160.41;;;6.99;72.26
12536;BME280;6334;48.696;2.114;2023-02-20T08:16:21;101166.67;;;6.56;74.40
12536;BME280;6334;48.696;2.114;2023-02-20T08:18:51;101168.25;;;6.07;72.44
12536;BME280;6334;48.696;2.114;2023-02-20T08:21:27;101174.55;;;6.18;75.76
12536;BME280;6334;48.696;2.114;2023-02-20T08:23:59;101173.55;;;6.28;76.82
12536;BME280;6334;48.696;2.114;2023-02-20T08:26:29;101170.86;;;6.29;76.34
12536;BME280;6334;48.696;2.114;2023-02-20T08:28:59;101172.82;;;6.40;75.94
12536;BME280;6334;48.696;2.114;2023-02-20T08:31:29;101171.95;;;6.13;77.91
12536;BME280;6334;48.696;2.114;2023-02-20T08:34:04;101176.16;;;6.30;77.68
12536;BME280;6334;48.696;2.114;2023-02-20T08:36:34;101173.00;;;6.58;77.28
12536;BME280;6334;48.696;2.114;2023-02-20T08:39:05;101163.45;;;6.52;77.90
12536;BME280;6334;48.696;2.114;2023-02-20T08:41:40;101165.52;;;6.60;77.09
12536;BME280;6334;48.696;2.114;2023-02-20T08:44:05;101167.45;;;6.47;77.88
12536;BME280;6334;48.696;2.114;2023-02-20T08:46:35;101168.53;;;6.58;75.62
12536;BME280;6334;48.696;2.114;2023-02-20T08:49:05;101167.75;;;6.56;77.24
12536;BME280;6334;48.696;2.114;2023-02-20T08:51:35;101168.41;;;6.85;76.13
12536;BME280;6334;48.696;2.114;2023-02-20T08:54:10;101168.32;;;6.74;77.09
12536;BME280;6334;48.696;2.114;2023-02-20T08:56:41;101161.70;;;6.87;77.37
12536;BME280;6334;48.696;2.114;2023-02-20T08:59:11;101168.95;;;7.29;76.21
12536;BME280;6334;48.696;2.114;2023-02-20T09:01:41;101154.78;;;7.19;75.92
12536;BME280;6334;48.696;2.114;2023-02-20T09:04:15;101161.48;;;7.20;76.11
12536;BME280;6334;48.696;2.114;2023-02-20T09:06:44;101164.08;;;7.43;76.50
12536;BME280;6334;48.696;2.114;2023-02-20T09:09:14;101167.22;;;7.12;78.85
12536;BME280;6334;48.696;2.114;2023-02-20T09:11:47;101166.82;;;7.22;77.66
12536;BME280;6334;48.696;2.114;2023-02-20T09:14:18;101162.24;;;7.16;79.18
12536;BME280;6334;48.696;2.114;2023-02-20T09:16:52;101168.24;;;7.48;77.74
12536;BME280;6334;48.696;2.114;2023-02-20T09:19:22;101169.14;;;7.53;77.93
12536;BME280;6334;48.696;2.114;2023-02-20T09:21:54;101170.62;;;7.55;78.56
12536;BME280;6334;48.696;2.114;2023-02-20T09:24:25;101169.14;;;7.75;77.04
12536;BME280;6334;48.696;2.114;2023-02-20T09:27:00;101170.41;;;7.58;77.50
12536;BME280;6334;48.696;2.114;2023-02-20T09:29:43;101174.20;;;7.61;77.93
12536;BME280;6334;48.696;2.114;2023-02-20T09:32:15;101170.45;;;7.66;78.25
12536;BME280;6334;48.696;2.114;2023-02-20T09:34:46;101174.91;;;7.96;77.14
12536;BME280;6334;48.696;2.114;2023-02-20T09:37:17;101176.11;;;7.71;77.91
12536;BME280;6334;48.696;2.114;2023-02-20T09:39:49;101175.03;;;7.71;78.35
12536;BME280;6334;48.696;2.114;2023-02-20T09:45:32;101169.55;;;7.93;77.92
12536;BME280;6334;48.696;2.114;2023-02-20T09:50:46;101171.77;;;7.87;78.08
12536;BME280;6334;48.696;2.114;2023-02-20T09:56:10;101170.84;;;8.38;76.09
12536;BME280;6334;48.696;2.114;2023-02-20T10:01:21;101167.70;;;8.48;73.71
12536;BME280;6334;48.696;2.114;2023-02-20T10:04:03;101153.53;;;8.46;73.42
12536;BME280;6334;48.696;2.114;2023-02-20T10:06:29;101157.55;;;8.69;73.21
12536;BME280;6334;48.696;2.114;2023-02-20T10:08:59;101155.42;;;8.70;73.20
12536;BME280;6334;48.696;2.114;2023-02-20T10:11:45;101158.93;;;8.67;73.82
12536;BME280;6334;48.696;2.114;2023-02-20T10:25:16;101154.53;;;9.04;75.07
12536;BME280;6334;48.696;2.114;2023-02-20T10:27:59;101154.69;;;9.09;73.53
12536;BME280;6334;48.696;2.114;2023-02-20T10:31:02;101151.63;;;9.03;75.26
12536;BME280;6334;48.696;2.114;2023-02-20T10:35:43;101153.55;;;9.34;73.70
12536;BME280;6334;48.696;2.114;2023-02-20T10:38:10;101154.17;;;9.38;73.15
12536;BME280;6334;48.696;2.114;2023-02-20T10:40:53;101159.02;;;9.19;75.17
12536;BME280;6334;48.696;2.114;2023-02-20T10:43:22;101152.17;;;9.38;75.39
12536;BME280;6334;48.696;2.114;2023-02-20T10:46:00;101147.90;;;9.34;75.92
12536;BME280;6334;48.696;2.114;2023-02-20T10:48:29;101150.75;;;9.67;73.21
12536;BME280;6334;48.696;2.114;2023-02-20T10:51:10;101150.01;;;9.60;73.87
12536;BME280;6334;48.696;2.114;2023-02-20T10:56:44;101152.13;;;9.63;73.74
12536;BME280;6334;48.696;2.114;2023-02-20T10:59:22;101149.09;;;9.59;73.76
12536;BME280;6334;48.696;2.114;2023-02-20T11:01:54;101148.61;;;9.72;73.82
12536;BME280;6334;48.696;2.114;2023-02-20T11:04:33;101146.61;;;9.78;73.11
12536;BME280;6334;48.696;2.114;2023-02-20T11:07:13;101143.84;;;9.75;73.73
12536;BME280;6334;48.696;2.114;2023-02-20T11:09:41;101144.16;;;9.95;72.67
12536;BME280;6334;48.696;2.114;2023-02-20T11:12:22;101142.69;;;9.98;72.77
12536;BME280;6334;48.696;2.114;2023-02-20T11:14:48;101140.19;;;9.87;73.37
12536;BME280;6334;48.696;2.114;2023-02-20T11:17:21;101128.98;;;10.06;72.00
12536;BME280;6334;48.696;2.114;2023-02-20T11:19:54;101130.17;;;10.10;71.68
12536;BME280;6334;48.696;2.114;2023-02-20T11:22:45;101124.40;;;10.07;71.86
12536;BME280;6334;48.696;2.114;2023-02-20T11:25:32;101124.73;;;10.39;71.13
12536;BME280;6334;48.696;2.114;2023-02-20T11:28:10;101122.86;;;10.21;71.45
12536;BME280;6334;48.696;2.114;2023-02-20T11:30:40;101117.95;;;10.42;71.24
12536;BME280;6334;48.696;2.114;2023-02-20T11:35:57;101113.18;;;10.51;70.45
12536;BME280;6334;48.696;2.114;2023-02-20T11:38:29;101106.39;;;10.59;69.72
12536;BME280;6334;48.696;2.114;2023-02-20T11:41:00;101107.28;;;10.70;69.60
12536;BME280;6334;48.696;2.114;2023-02-20T11:43:34;101098.87;;;10.51;70.17
12536;BME280;6334;48.696;2.114;2023-02-20T11:46:20;101093.01;;;10.63;68.99
12536;BME280;6334;48.696;2.114;2023-02-20T11:49:07;101099.72;;;10.72;69.18
12536;BME280;6334;48.696;2.114;2023-02-20T11:56:36;101081.89;;;10.96;68.82
12536;BME280;6334;48.696;2.114;2023-02-20T11:59:25;101074.81;;;10.96;67.95
12536;BME280;6334;48.696;2.114;2023-02-20T12:01:54;101077.01;;;10.78;69.02
12536;BME280;6334;48.696;2.114;2023-02-20T12:04:23;101071.13;;;10.84;68.91
12536;BME280;6334;48.696;2.114;2023-02-20T12:06:55;101066.93;;;11.03;68.65
12536;BME280;6334;48.696;2.114;2023-02-20T12:09:29;101061.95;;;10.83;69.71
12536;BME280;6334;48.696;2.114;2023-02-20T12:11:59;101056.27;;;10.72;69.66
12536;BME280;6334;48.696;2.114;2023-02-20T12:14:29;101049.84;;;10.91;68.73
12536;BME280;6334;48.696;2.114;2023-02-20T12:17:28;101035.03;;;10.99;68.20
12536;BME280;6334;48.696;2.114;2023-02-20T12:19:52;101040.38;;;11.08;67.91
12536;BME280;6334;48.696;2.114;2023-02-20T12:22:35;101034.09;;;10.92;68.20
12536;BME280;6334;48.696;2.114;2023-02-20T12:28:16;101030.33;;;11.18;67.34
12536;BME280;6334;48.696;2.114;2023-02-20T12:33:43;101015.13;;;10.97;68.53
12536;BME280;6334;48.696;2.114;2023-02-20T12:39:13;101015.56;;;11.09;67.41
12536;BME280;6334;48.696;2.114;2023-02-20T12:41:57;101012.78;;;10.96;67.88
12536;BME280;6334;48.696;2.114;2023-02-20T12:47:33;101008.84;;;11.14;67.21
12536;BME280;6334;48.696;2.114;2023-02-20T12:50:29;101005.91;;;11.16;67.57
12536;BME280;6334;48.696;2.114;2023-02-20T13:01:25;100990.63;;;10.81;68.20
12536;BME280;6334;48.696;2.114;2023-02-20T13:03:58;100987.00;;;11.00;68.51
12536;BME280;6334;48.696;2.114;2023-02-20T13:09:16;100983.25;;;11.11;67.38
12536;BME280;6334;48.696;2.114;2023-02-20T13:11:44;100980.02;;;11.21;67.75
12536;BME280;6334;48.696;2.114;2023-02-20T13:16:54;100973.53;;;11.19;67.09
12536;BME280;6334;48.696;2.114;2023-02-20T13:21:54;100967.03;;;11.19;66.96
12536;BME280;6334;48.696;2.114;2023-02-20T13:24:27;100968.54;;;11.22;67.09
12536;BME280;6334;48.696;2.114;2023-02-20T13:27:05;100961.20;;;11.19;67.44
12536;BME280;6334;48.696;2.114;2023-02-20T13:29:38;100961.59;;;11.01;67.23
12536;BME280;6334;48.696;2.114;2023-02-20T13:34:45;100957.95;;;11.27;66.87
12536;BME280;6334;48.696;2.114;2023-02-20T13:45:42;100951.05;;;11.17;66.51
12536;BME280;6334;48.696;2.114;2023-02-20T13:54:10;100940.62;;;11.24;67.04
12536;BME280;6334;48.696;2.114;2023-02-20T13:56:54;100935.36;;;11.29;66.96
12536;BME280;6334;48.696;2.114;2023-02-20T13:59:23;100932.95;;;11.25;66.22
12536;BME280;6334;48.696;2.114;2023-02-20T14:04:36;100921.48;;;11.08;66.65
12536;BME280;6334;48.696;2.114;2023-02-20T14:07:05;100922.13;;;11.20;65.95
12536;BME280;6334;48.696;2.114;2023-02-20T14:09:37;100917.06;;;11.13;66.41
12536;BME280;6334;48.696;2.114;2023-02-20T14:12:12;100916.72;;;11.12;66.60
12536;BME280;6334;48.696;2.114;2023-02-20T14:14:40;100909.14;;;11.12;66.42
12536;BME280;6334;48.696;2.114;2023-02-20T14:17:22;100901.82;;;11.17;66.55
12536;BME280;6334;48.696;2.114;2023-02-20T14:19:57;100900.81;;;11.07;66.48
12536;BME280;6334;48.696;2.114;2023-02-20T14:22:25;100882.23;;;11.09;66.00
12536;BME280;6334;48.696;2.114;2023-02-20T14:28:02;100889.92;;;11.13;66.27
12536;BME280;6334;48.696;2.114;2023-02-20T14:30:24;100888.91;;;11.10;66.34
12536;BME280;6334;48.696;2.114;2023-02-20T14:32:55;100883.50;;;11.10;65.99
12536;BME280;6334;48.696;2.114;2023-02-20T14:38:39;100866.23;;;11.11;66.11
12536;BME280;6334;48.696;2.114;2023-02-20T14:41:18;100861.08;;;11.26;65.79
12536;BME280;6334;48.696;2.114;2023-02-20T14:44:03;100857.42;;;11.17;65.41
12536;BME280;6334;48.696;2.114;2023-02-20T14:46:27;100853.09;;;11.23;65.48
12536;BME280;6334;48.696;2.114;2023-02-20T14:49:08;100850.66;;;11.30;65.56
12536;BME280;6334;48.696;2.114;2023-02-20T14:51:38;100843.94;;;11.14;65.99
12536;BME280;6334;48.696;2.114;2023-02-20T14:54:21;100839.66;;;11.34;65.26
12536;BME280;6334;48.696;2.114;2023-02-20T14:56:51;100834.66;;;11.34;64.90
12536;BME280;6334;48.696;2.114;2023-02-20T14:59:28;100831.36;;;11.12;65.61
12536;BME280;6334;48.696;2.114;2023-02-20T15:02:12;100830.79;;;11.13;65.64
12536;BME280;6334;48.696;2.114;2023-02-20T15:04:45;100831.44;;;11.21;65.56
12536;BME280;6334;48.696;2.114;2023-02-20T15:07:13;100832.42;;;11.23;64.90
12536;BME280;6334;48.696;2.114;2023-02-20T15:09:45;100827.43;;;11.26;64.33
12536;BME280;6334;48.696;2.114;2023-02-20T15:12:28;100823.40;;;11.32;64.50
12536;BME280;6334;48.696;2.114;2023-02-20T15:14:58;100825.95;;;11.41;63.87
12536;BME280;6334;48.696;2.114;2023-02-20T15:17:34;100822.88;;;11.44;63.73
12536;BME280;6334;48.696;2.114;2023-02-20T15:20:28;100821.73;;;11.38;62.11
12536;BME280;6334;48.696;2.114;2023-02-20T15:22:50;100819.29;;;11.43;61.03
12536;BME280;6334;48.696;2.114;2023-02-20T15:30:33;100808.81;;;11.43;61.81
12536;BME280;6334;48.696;2.114;2023-02-20T15:33:06;100804.81;;;11.35;60.12
12536;BME280;6334;48.696;2.114;2023-02-20T15:35:35;100802.29;;;11.49;58.49
12536;BME280;6334;48.696;2.114;2023-02-20T15:38:07;100799.45;;;11.48;58.23
12536;BME280;6334;48.696;2.114;2023-02-20T15:40:37;100801.88;;;11.51;60.82